• Join FlightAware (Why Join?)
  • Login
  • US Flag 
07:41PM EDT


 

Airport Tracker/Info


-or-


 

Live Flight TrackerFlight Track Log ✈ ASH3797 ✈ 21-Jul-2013 ✈ KMCI - KORD

Flight Track Log - Related Links

Times and Time Zones

All times are in EDT time to prevent confusion due to time zone crossing. See the ASH3797 flight status page for this flight to view local times or setup timezone preferences in your user account.

Time Position Orientation Groundspeed Altitude Reporting Facility
EDT Latitude Longitude Course Direction KTS MPH feet Rate Location/Type
12:38PM 39.3000 -94.7333 43° Northeast 133 153 1,700  Level Kansas City TRACON
12:39PM 39.2333 -94.7167 169° South 216 249 3,900 2,040 Climbing Kansas City TRACON
12:40PM 39.1833 -94.6667 142° Southeast 266 306 6,300 2,280 Climbing Kansas City TRACON
12:42PM 39.2400 -94.5753 51° Northeast 293 337 9,100 1,920 Climbing Kansas City Center
12:43PM 39.6227 -94.2899 45° Northeast  Level FlightAware Approximate
12:43PM 39.3075 -94.5169 34° Northeast 304 350 10,800  Level Kansas City Center
12:44PM 39.6979 -94.1959 43° Northeast  Level FlightAware Approximate
12:44PM 39.4008 -94.4389 33° Northeast 356 410 12,800  Level Kansas City Center
12:45PM 39.4825 -94.3706 33° Northeast 364 419 14,900 1,920 Climbing Kansas City Center
12:46PM 39.5803 -94.2881 33° Northeast 375 432 16,800 1,680 Climbing Kansas City Center
12:47PM 39.6617 -94.2050 38° Northeast 391 450 18,400 1,440 Climbing Kansas City Center
12:48PM 39.7556 -94.0942 42° Northeast 408 470 19,800 1,320 Climbing Kansas City Center
12:49PM 39.8031 -93.9611 65° Northeast 428 493 21,200 1,200 Climbing Kansas City Center
12:50PM 39.8442 -93.8200 69° East 431 496 22,400 1,200 Climbing Kansas City Center
12:51PM 39.8903 -93.6739 68° East 438 504 23,700 1,260 Climbing Kansas City Center
12:52PM 39.9444 -93.4931 69° East 447 514 25,100 1,140 Climbing Kansas City Center
12:53PM 39.9911 -93.3406 68° East 454 522 26,100 780 Climbing Kansas City Center
12:54PM 40.0381 -93.1831 69° East 466 536 26,800 780 Climbing Kansas City Center
12:55PM 40.0906 -93.0069 69° East 476 548 27,800 900 Climbing Kansas City Center
12:56PM 40.1375 -92.8486 69° East 485 558 28,700 960 Climbing Kansas City Center
12:57PM 40.1906 -92.6642 69° East 486 559 29,900 1,140 Climbing Kansas City Center
12:58PM 40.2358 -92.5033 70° East 490 564 31,100 1,140 Climbing Kansas City Center
12:59PM 40.2894 -92.3394 67° East 484 557 32,300 900 Climbing Kansas City Center
01:00PM 40.3411 -92.1514 70° East 488 562 33,000 300 Climbing Kansas City Center
01:01PM 40.3886 -91.9825 70° East 495 570 33,000  Level Kansas City Center
01:02PM 40.4189 -91.8767 69° East 508 585 33,000  Level Chicago Center
01:03PM 40.4692 -91.7000 69° East 519 597 33,000  Level Chicago Center
01:04PM 40.5192 -91.5217 70° East 523 602 33,000  Level Chicago Center
01:05PM 40.5711 -91.3436 69° East 525 604 33,000  Level Chicago Center
01:06PM 40.6403 -91.1497 65° Northeast 522 601 33,000  Level Chicago Center
01:07PM 40.7008 -90.9742 65° Northeast 524 603 33,000  Level Chicago Center
01:08PM 40.7606 -90.7978 66° East 524 603 33,000  Level Chicago Center
01:09PM 40.8197 -90.6211 66° East 524 603 33,000 -60 Level Chicago Center
01:10PM 40.8917 -90.4075 66° East 521 600 32,900 -1,020 Descending Chicago Center
01:11PM 40.9503 -90.2328 66° East 523 602 30,900 -1,980 Descending Chicago Center
01:12PM 41.0067 -90.0578 67° East 517 595 28,900 -2,040 Descending Chicago Center
01:13PM 41.0647 -89.8833 66° East 513 590 26,800 -2,040 Descending Chicago Center
01:14PM 41.1192 -89.7178 66° East 489 563 24,800 -1,380 Descending Chicago Center
01:15PM 41.1728 -89.5572 66° East 475 547 24,000 -1,440 Descending Chicago Center
01:16PM 41.2358 -89.4019 62° Northeast 477 549 21,800 -2,340 Descending Chicago Center
01:17PM 41.2967 -89.2503 62° Northeast 468 539 19,200 -2,700 Descending Chicago Center
01:19PM 41.3608 -89.0869 62° Northeast 450 518 16,300 -2,700 Descending Chicago Center
01:20PM 41.4169 -88.9478 62° Northeast 432 497 13,700 -2,520 Descending Chicago Center
01:21PM 41.4681 -88.8183 62° Northeast 401 461 11,200 -1,320 Descending Chicago Center
01:22PM 41.5203 -88.6883 62° Northeast 330 380 11,000 -120 Descending Chicago Center
01:23PM 41.5586 -88.5875 63° Northeast 309 356 11,000 -240 Level Chicago Center
01:24PM 41.5986 -88.4894 61° Northeast 302 348 10,600 -1,140 Descending Chicago Center
01:25PM 41.6467 -88.4003 54° Northeast 298 343 8,700 -1,740 Descending Chicago Center
01:26PM 41.7092 -88.3425 35° Northeast 293 337 7,100 -840 Descending Chicago Center
01:27PM 41.7867 -88.3328 North 283 326 7,000 -420 Descending Chicago Center
01:28PM 41.8628 -88.3236 North 220 253 6,300 -1,020 Descending Chicago Center
01:29PM 41.9211 -88.3189 North 212 244 4,900 -1,140 Descending Chicago Center
01:30PM 41.9508 -88.2639 54° Northeast 199 229 4,000 -480 Descending Chicago Center
01:31PM 41.9678 -88.1975 71° East 195 224 4,000 -300 Level Chicago Center
01:32PM 41.9678 -88.1256 90° East 193 222 3,400 -960 Descending Chicago Center
01:33PM 41.9683 -88.0353 89° East 198 228 2,100 -1,200 Descending Chicago Center
01:34PM 41.9667 -88.0000 94° East 160 184 1,600 -840 Descending Chicago TRACON
01:35PM 41.9667 -87.9500 90° East 146 168 900 -720 Descending Chicago TRACON